createdAt,value
2022-12-20T00:01:00.986Z,84.21
2022-12-20T00:06:03.270Z,84.21
2022-12-20T00:11:07.522Z,84.49
2022-12-20T00:16:14.507Z,84.55
2022-12-20T00:21:16.601Z,84.63
2022-12-20T00:26:20.455Z,84.78
2022-12-20T00:31:25.104Z,84.43
2022-12-20T00:36:30.953Z,84.33
2022-12-20T00:41:33.871Z,84.18
2022-12-20T00:46:35.954Z,84.28
2022-12-20T00:51:37.488Z,84.36
2022-12-20T00:56:39.465Z,84.35
2022-12-20T01:01:41.387Z,83.85
2022-12-20T01:06:43.324Z,83.31
2022-12-20T01:11:44.725Z,82.71
2022-12-20T01:16:47.419Z,82.22
2022-12-20T01:21:49.353Z,82.93
2022-12-20T01:26:50.937Z,83.54
2022-12-20T01:31:53.936Z,82.97
2022-12-20T01:36:55.807Z,83.15
2022-12-20T01:41:57.436Z,83.15
2022-12-20T01:46:58.930Z,82.74
2022-12-20T01:52:07.104Z,83.05
2022-12-20T01:57:12.729Z,82.90
2022-12-20T02:02:18.182Z,82.98
2022-12-20T02:07:26.954Z,82.98
2022-12-20T02:12:46.498Z,82.98
2022-12-20T02:18:16.498Z,82.73
2022-12-20T02:23:52.341Z,82.54
2022-12-20T02:29:07.701Z,82.59
2022-12-20T02:34:10.709Z,83.00
2022-12-20T02:39:16.279Z,82.86
2022-12-20T02:44:39.621Z,83.34
2022-12-20T02:49:42.881Z,83.20
2022-12-20T02:54:44.428Z,83.77
2022-12-20T03:00:04.220Z,83.16
2022-12-20T03:05:06.166Z,83.12
2022-12-20T03:10:08.127Z,83.10
2022-12-20T03:15:10.124Z,83.64
2022-12-20T03:20:11.896Z,83.40
2022-12-20T03:25:13.431Z,83.85
2022-12-20T03:30:15.365Z,83.56
2022-12-20T03:35:16.854Z,83.66
2022-12-20T03:40:18.384Z,83.29
2022-12-20T03:45:19.860Z,83.69
2022-12-20T03:50:21.544Z,83.57
2022-12-20T03:55:23.056Z,83.46
2022-12-20T04:00:24.908Z,83.31
2022-12-20T04:05:26.349Z,83.74
2022-12-20T04:10:27.805Z,83.72
2022-12-20T04:15:29.500Z,83.02
2022-12-20T04:20:31.047Z,83.42
2022-12-20T04:25:32.574Z,83.70
2022-12-20T04:30:33.971Z,84.07
2022-12-20T04:35:36.515Z,84.08
2022-12-20T04:40:38.111Z,84.23
2022-12-20T04:45:39.551Z,84.19
2022-12-20T04:50:41.055Z,84.37
2022-12-20T04:55:42.640Z,84.35
2022-12-20T05:00:44.244Z,84.15
2022-12-20T05:05:45.888Z,83.67
2022-12-20T05:10:48.288Z,83.72
2022-12-20T05:15:54.415Z,83.90
2022-12-20T05:21:19.134Z,84.15
2022-12-20T05:26:20.938Z,84.12
2022-12-20T05:31:22.492Z,83.60
2022-12-20T05:36:24.412Z,83.55
2022-12-20T05:41:25.875Z,83.60
2022-12-20T05:46:27.306Z,83.74
2022-12-20T05:51:28.666Z,83.44
2022-12-20T05:56:30.045Z,84.07
2022-12-20T06:01:31.559Z,84.17
2022-12-20T06:06:33.098Z,84.21
2022-12-20T06:11:34.461Z,83.89
2022-12-20T06:16:36.746Z,83.83
2022-12-20T06:21:38.647Z,83.92
2022-12-20T06:26:40.171Z,84.00
2022-12-20T06:31:41.755Z,84.43
2022-12-20T06:36:43.242Z,84.25
2022-12-20T06:41:44.828Z,84.53
2022-12-20T06:46:46.380Z,84.24
2022-12-20T06:51:48.913Z,84.45
2022-12-20T06:56:50.503Z,84.24
2022-12-20T07:01:52.080Z,84.44
2022-12-20T07:06:53.837Z,84.53
2022-12-20T07:11:58.071Z,84.57
2022-12-20T07:16:59.795Z,84.73
2022-12-20T07:22:01.692Z,84.51
2022-12-20T07:27:03.065Z,84.29
2022-12-20T07:32:04.807Z,84.32
2022-12-20T07:37:06.267Z,84.23
2022-12-20T07:42:09.218Z,84.00
2022-12-20T07:47:11.459Z,83.86
2022-12-20T07:52:14.720Z,83.55
2022-12-20T07:57:22.842Z,83.53
2022-12-20T08:02:31.502Z,83.61
2022-12-20T08:07:33.351Z,83.33
2022-12-20T08:12:34.940Z,83.52
2022-12-20T08:17:38.113Z,83.54
2022-12-20T08:22:39.477Z,83.55
2022-12-20T08:27:42.034Z,83.16
2022-12-20T08:32:44.212Z,82.27
2022-12-20T08:37:45.974Z,81.44
2022-12-20T08:42:47.352Z,81.11
2022-12-20T08:47:49.003Z,81.75
2022-12-20T08:52:50.657Z,82.28
2022-12-20T08:57:52.849Z,82.13
2022-12-20T09:02:55.477Z,82.50
2022-12-20T09:07:56.961Z,82.51
2022-12-20T09:12:58.285Z,82.58
2022-12-20T09:18:00.585Z,82.22
2022-12-20T09:23:02.754Z,81.98
2022-12-20T09:28:07.006Z,81.77
2022-12-20T09:33:10.690Z,82.47
2022-12-20T09:38:12.368Z,82.31
2022-12-20T09:43:20.303Z,81.87
2022-12-20T09:48:38.407Z,82.01
2022-12-20T09:54:04.995Z,81.65
2022-12-20T09:59:11.788Z,81.60
2022-12-20T10:04:23.207Z,80.57
2022-12-20T10:09:47.968Z,81.24
2022-12-20T10:15:16.691Z,80.69
2022-12-20T10:20:41.791Z,80.68
2022-12-20T10:25:45.407Z,80.64
2022-12-20T10:30:46.910Z,81.01
2022-12-20T10:35:50.718Z,81.08
2022-12-20T10:41:20.874Z,81.25
2022-12-20T10:46:20.609Z,81.47
2022-12-20T10:51:22.772Z,81.71
2022-12-20T10:56:24.154Z,81.30
2022-12-20T11:01:36.156Z,81.00
2022-12-20T11:06:37.928Z,80.63
2022-12-20T11:11:39.445Z,80.52
2022-12-20T11:16:52.945Z,79.72
2022-12-20T11:22:12.203Z,79.88
2022-12-20T11:27:27.386Z,79.71
2022-12-20T11:32:43.090Z,79.99
2022-12-20T11:38:09.805Z,79.56
2022-12-20T11:43:29.864Z,78.91
2022-12-20T11:48:43.185Z,78.92
2022-12-20T11:53:57.511Z,78.89
2022-12-20T11:59:17.435Z,79.28
2022-12-20T12:04:26.614Z,79.47
2022-12-20T12:09:36.292Z,79.56
2022-12-20T12:15:02.050Z,79.83
2022-12-20T12:20:30.745Z,79.95
2022-12-20T12:25:32.192Z,79.88
2022-12-20T12:30:43.424Z,79.12
2022-12-20T12:36:20.528Z,79.30
2022-12-20T12:42:18.363Z,79.29
2022-12-20T12:47:25.158Z,79.51
2022-12-20T12:52:43.138Z,79.34
2022-12-20T12:57:58.527Z,79.15
2022-12-20T13:03:05.884Z,78.99
2022-12-20T13:08:17.851Z,79.08
2022-12-20T13:13:23.352Z,78.60
2022-12-20T13:18:25.677Z,77.45
2022-12-20T13:23:27.085Z,77.37
2022-12-20T13:28:28.524Z,77.24
2022-12-20T13:33:39.066Z,77.70
2022-12-20T13:38:54.288Z,77.81
2022-12-20T13:43:57.228Z,77.44
2022-12-20T13:49:03.642Z,76.90
2022-12-20T13:54:08.461Z,76.99
2022-12-20T13:59:19.172Z,76.92
2022-12-20T14:04:20.852Z,76.99
2022-12-20T14:09:29.813Z,77.14
2022-12-20T14:14:31.395Z,77.19
2022-12-20T14:19:32.956Z,77.47
2022-12-20T14:24:35.204Z,77.39
2022-12-20T14:29:36.814Z,77.86
2022-12-20T14:34:43.004Z,77.86
2022-12-20T14:40:09.765Z,77.80
2022-12-20T14:45:14.020Z,78.33
2022-12-20T14:50:22.550Z,78.00
2022-12-20T14:55:33.223Z,78.19
2022-12-20T15:00:34.982Z,78.44
2022-12-20T15:05:49.131Z,79.05
2022-12-20T15:10:53.480Z,79.06
2022-12-20T15:15:55.342Z,78.95
2022-12-20T15:21:06.684Z,78.97
2022-12-20T15:26:12.272Z,79.15
2022-12-20T15:31:16.430Z,79.32
2022-12-20T15:36:24.223Z,80.06
2022-12-20T15:41:28.748Z,79.80
2022-12-20T15:46:30.353Z,80.85
2022-12-20T15:51:36.833Z,80.94
2022-12-20T15:56:41.403Z,82.05
2022-12-20T16:01:42.932Z,82.38
2022-12-20T16:06:46.584Z,82.36
2022-12-20T16:11:48.965Z,82.71
2022-12-20T16:16:50.887Z,82.64
2022-12-20T16:21:52.782Z,82.68
2022-12-20T16:26:54.270Z,82.53
2022-12-20T16:31:55.793Z,82.88
2022-12-20T16:36:57.281Z,83.01
2022-12-20T16:41:58.696Z,82.85
2022-12-20T16:47:00.167Z,82.96
2022-12-20T16:52:02.520Z,83.48
2022-12-20T16:57:04.167Z,83.71
2022-12-20T17:02:22.301Z,83.92
2022-12-20T17:07:23.923Z,83.27
2022-12-20T17:12:25.442Z,83.05
2022-12-20T17:17:26.868Z,83.27
2022-12-20T17:22:29.502Z,82.59
2022-12-20T17:27:30.899Z,82.25
2022-12-20T17:32:32.603Z,82.64
2022-12-20T17:37:35.278Z,81.95
2022-12-20T17:42:36.772Z,82.07
2022-12-20T17:47:38.123Z,82.69
2022-12-20T17:52:39.574Z,82.79
2022-12-20T17:57:41.249Z,82.93
2022-12-20T18:02:42.792Z,83.21
2022-12-20T18:07:50.021Z,82.96
2022-12-20T18:12:51.590Z,82.78
2022-12-20T18:17:53.018Z,82.85
2022-12-20T18:22:54.483Z,83.69
2022-12-20T18:27:56.171Z,83.16
2022-12-20T18:32:57.848Z,83.41
2022-12-20T18:37:59.415Z,83.96
2022-12-20T18:43:05.795Z,84.82
2022-12-20T18:48:07.835Z,84.13
2022-12-20T18:53:09.686Z,84.62
2022-12-20T18:58:11.091Z,85.44
2022-12-20T19:03:16.157Z,85.27
2022-12-20T19:08:18.996Z,85.72
2022-12-20T19:13:20.416Z,85.67
2022-12-20T19:18:21.866Z,85.94
2022-12-20T19:23:23.533Z,86.04
2022-12-20T19:28:24.953Z,85.90
2022-12-20T19:33:26.638Z,85.82
2022-12-20T19:38:28.000Z,86.11
2022-12-20T19:43:30.158Z,85.89
2022-12-20T19:48:34.730Z,85.66
2022-12-20T19:53:37.229Z,85.75
2022-12-20T19:58:39.286Z,85.06
2022-12-20T20:03:40.951Z,85.16
2022-12-20T20:08:42.587Z,85.32
2022-12-20T20:13:44.199Z,85.56
2022-12-20T20:18:48.549Z,85.36
2022-12-20T20:23:51.931Z,86.07
2022-12-20T20:28:53.692Z,85.69
2022-12-20T20:33:56.765Z,85.65
2022-12-20T20:38:59.320Z,85.80
2022-12-20T20:44:00.723Z,86.63
2022-12-20T20:49:02.136Z,86.44
2022-12-20T20:54:05.296Z,86.62
2022-12-20T20:59:10.590Z,87.16
2022-12-20T21:04:16.711Z,87.24
2022-12-20T21:09:18.178Z,87.51
2022-12-20T21:14:36.513Z,87.76
2022-12-20T21:19:41.615Z,87.96
2022-12-20T21:24:43.044Z,88.23
2022-12-20T21:29:44.537Z,88.40
2022-12-20T21:34:46.081Z,89.04
2022-12-20T21:39:47.852Z,88.70
2022-12-20T21:44:49.426Z,88.84
2022-12-20T21:49:51.196Z,88.77
2022-12-20T21:54:52.622Z,89.46
2022-12-20T21:59:54.211Z,89.41
2022-12-20T22:04:55.615Z,89.87
2022-12-20T22:09:56.964Z,89.89
2022-12-20T22:14:58.343Z,89.95
2022-12-20T22:19:59.708Z,89.95
2022-12-20T22:25:01.037Z,90.14
2022-12-20T22:30:02.486Z,90.07
2022-12-20T22:35:04.307Z,90.31
2022-12-20T22:40:06.412Z,90.71
2022-12-20T22:45:08.342Z,90.75
2022-12-20T22:50:11.090Z,91.06
2022-12-20T22:55:12.740Z,90.95
2022-12-20T23:00:14.520Z,91.18
2022-12-20T23:05:15.950Z,91.57
2022-12-20T23:10:37.348Z,91.50
2022-12-20T23:15:41.367Z,91.18
2022-12-20T23:21:07.796Z,90.96
2022-12-20T23:26:15.683Z,91.16
2022-12-20T23:31:17.301Z,91.69
2022-12-20T23:36:19.508Z,92.01
2022-12-20T23:41:21.179Z,91.79
2022-12-20T23:46:23.063Z,93.15
2022-12-20T23:51:24.672Z,92.26
2022-12-20T23:56:26.042Z,92.84
